createdAt,value
2018-03-28T00:00:04.894Z,100168.30
2018-03-28T00:01:08.242Z,100164.74
2018-03-28T00:02:11.602Z,100164.26
2018-03-28T00:03:14.946Z,100168.98
2018-03-28T00:04:18.316Z,100165.02
2018-03-28T00:05:21.719Z,100159.59
2018-03-28T00:06:25.048Z,100163.89
2018-03-28T00:07:28.396Z,100164.25
2018-03-28T00:08:31.701Z,100163.71
2018-03-28T00:09:35.039Z,100168.44
2018-03-28T00:10:38.388Z,100175.48
2018-03-28T00:11:42.013Z,100171.03
2018-03-28T00:12:45.361Z,100168.74
2018-03-28T00:13:48.739Z,100171.33
2018-03-28T00:14:52.052Z,100173.47
2018-03-28T00:15:55.373Z,100172.08
2018-03-28T00:16:58.739Z,100169.44
2018-03-28T00:18:02.598Z,100170.70
2018-03-28T00:19:05.924Z,100172.38
2018-03-28T00:20:09.253Z,100169.64
2018-03-28T00:21:12.623Z,100168.83
2018-03-28T00:22:16.272Z,100171.81
2018-03-28T00:23:19.589Z,100168.73
2018-03-28T00:24:22.922Z,100166.03
2018-03-28T00:25:26.251Z,100163.80
2018-03-28T00:26:29.566Z,100161.56
2018-03-28T00:27:32.925Z,100161.08
2018-03-28T00:28:36.233Z,100157.05
2018-03-28T00:29:39.581Z,100165.42
2018-03-28T00:30:42.975Z,100152.16
2018-03-28T00:31:46.297Z,100149.52
2018-03-28T00:32:49.750Z,100146.77
2018-03-28T00:33:53.069Z,100144.06
2018-03-28T00:34:57.796Z,100143.16
2018-03-28T00:36:01.180Z,100139.12
2018-03-28T00:37:04.509Z,100139.95
2018-03-28T00:38:07.880Z,100142.09
2018-03-28T00:39:11.194Z,100143.78
2018-03-28T00:40:14.609Z,100141.13
2018-03-28T00:41:17.960Z,100137.64
2018-03-28T00:42:21.295Z,100139.32
2018-03-28T00:43:24.642Z,100138.42
2018-03-28T00:44:29.771Z,100134.80
2018-03-28T00:45:33.135Z,100131.73
2018-03-28T00:46:36.517Z,100127.27
2018-03-28T00:47:39.908Z,100125.94
2018-03-28T00:48:43.234Z,100124.52
2018-03-28T00:49:46.575Z,100124.46
2018-03-28T00:50:49.885Z,100125.36
2018-03-28T00:51:53.256Z,100124.10
2018-03-28T00:52:56.573Z,100122.35
2018-03-28T00:53:59.912Z,100126.69
2018-03-28T00:55:03.277Z,100122.30
2018-03-28T00:56:06.620Z,100124.10
2018-03-28T00:57:09.969Z,100124.88
2018-03-28T00:58:13.319Z,100124.04
2018-03-28T00:59:16.717Z,100128.44
2018-03-28T01:00:20.108Z,100122.23
2018-03-28T01:01:23.434Z,100123.14
2018-03-28T01:02:27.237Z,100124.52
2018-03-28T01:03:30.551Z,100118.25
2018-03-28T01:04:33.892Z,100119.09
2018-03-28T01:05:37.256Z,100120.42
2018-03-28T01:06:40.565Z,100119.52
2018-03-28T01:07:43.948Z,100120.36
2018-03-28T01:08:47.266Z,100126.09
2018-03-28T01:09:50.659Z,100121.17
2018-03-28T01:10:53.990Z,100125.57
2018-03-28T01:11:57.353Z,100121.17
2018-03-28T01:13:00.685Z,100124.67
2018-03-28T01:14:04.005Z,100121.59
2018-03-28T01:15:07.395Z,100121.11
2018-03-28T01:16:10.726Z,100121.05
2018-03-28T01:17:14.043Z,100124.61
2018-03-28T01:18:17.364Z,100124.97
2018-03-28T01:19:20.679Z,100123.64
2018-03-28T01:20:24.017Z,100123.64
2018-03-28T01:21:27.382Z,100130.20
2018-03-28T01:22:30.768Z,100122.64
2018-03-28T01:23:34.120Z,100127.05
2018-03-28T01:24:37.445Z,100120.92
2018-03-28T01:25:41.264Z,100126.13
2018-03-28T01:26:44.597Z,100127.46
2018-03-28T01:27:48.703Z,100125.23
2018-03-28T01:28:52.019Z,100130.11
2018-03-28T01:29:55.354Z,100129.15
2018-03-28T01:30:59.833Z,100131.38
2018-03-28T01:32:03.137Z,100131.73
2018-03-28T01:33:06.492Z,100134.45
2018-03-28T01:34:09.824Z,100133.06
2018-03-28T01:35:14.484Z,100130.84
2018-03-28T01:36:17.849Z,100138.31
2018-03-28T01:37:21.179Z,100133.48
2018-03-28T01:38:24.487Z,100138.31
2018-03-28T01:39:27.842Z,100135.14
2018-03-28T01:40:31.152Z,100138.31
2018-03-28T01:41:34.557Z,100137.47
2018-03-28T01:42:38.009Z,100141.77
2018-03-28T01:43:41.367Z,100139.12
2018-03-28T01:44:44.676Z,100144.36
2018-03-28T01:45:48.011Z,100141.70
2018-03-28T01:46:51.381Z,100137.25
2018-03-28T01:47:54.672Z,100140.80
2018-03-28T01:48:57.992Z,100139.48
2018-03-28T01:50:01.369Z,100139.90
2018-03-28T01:51:04.703Z,100139.90
2018-03-28T01:52:08.047Z,100139.42
2018-03-28T01:53:11.385Z,100139.90
2018-03-28T01:54:14.715Z,100140.32
2018-03-28T01:55:18.849Z,100138.09
2018-03-28T01:56:22.232Z,100142.91
2018-03-28T01:57:26.169Z,100145.63
2018-03-28T01:58:29.492Z,100140.32
2018-03-28T01:59:32.900Z,100144.30
2018-03-28T02:00:36.227Z,100143.39
2018-03-28T02:01:39.549Z,100143.81
2018-03-28T02:02:42.905Z,100141.65
2018-03-28T02:03:46.235Z,100143.33
2018-03-28T02:04:49.607Z,100140.75
2018-03-28T02:05:52.906Z,100136.70
2018-03-28T02:06:56.293Z,100139.84
2018-03-28T02:07:59.582Z,100142.91
2018-03-28T02:09:02.898Z,100140.17
2018-03-28T02:10:06.219Z,100144.56
2018-03-28T02:11:09.531Z,100140.59
2018-03-28T02:12:12.860Z,100146.41
2018-03-28T02:13:16.256Z,100139.84
2018-03-28T02:14:19.560Z,100146.80
2018-03-28T02:15:22.891Z,100142.01
2018-03-28T02:16:26.227Z,100145.47
2018-03-28T02:17:29.627Z,100142.81
2018-03-28T02:18:32.954Z,100143.23
2018-03-28T02:19:36.342Z,100142.76
2018-03-28T02:20:39.738Z,100140.95
2018-03-28T02:21:43.064Z,100144.08
2018-03-28T02:22:46.382Z,100145.41
2018-03-28T02:23:49.736Z,100146.67
2018-03-28T02:24:53.086Z,100142.21
2018-03-28T02:25:56.415Z,100143.96
2018-03-28T02:26:59.764Z,100143.18
2018-03-28T02:28:03.084Z,100145.34
2018-03-28T02:29:06.423Z,100152.46
2018-03-28T02:30:09.761Z,100155.95
2018-03-28T02:31:13.109Z,100146.61
2018-03-28T02:32:16.457Z,100145.70
2018-03-28T02:33:19.818Z,100143.86
2018-03-28T02:34:23.159Z,100142.06
2018-03-28T02:35:27.395Z,100138.50
2018-03-28T02:36:30.732Z,100137.66
2018-03-28T02:37:34.051Z,100140.73
2018-03-28T02:38:37.397Z,100133.26
2018-03-28T02:39:40.865Z,100136.84
2018-03-28T02:40:44.182Z,100127.56
2018-03-28T02:41:47.502Z,100133.84
2018-03-28T02:42:50.807Z,100128.53
2018-03-28T02:43:54.127Z,100131.19
2018-03-28T02:44:57.477Z,100136.48
2018-03-28T02:46:00.813Z,100132.45
2018-03-28T02:47:04.190Z,100133.35
2018-03-28T02:48:07.548Z,100135.10
2018-03-28T02:49:10.897Z,100140.05
2018-03-28T02:50:14.331Z,100138.30
2018-03-28T02:51:17.638Z,100133.41
2018-03-28T02:52:20.950Z,100141.31
2018-03-28T02:53:24.271Z,100135.16
2018-03-28T02:54:27.600Z,100135.58
2018-03-28T02:55:30.938Z,100132.93
2018-03-28T02:56:34.883Z,100135.16
2018-03-28T02:57:38.247Z,100131.61
2018-03-28T02:58:41.568Z,100133.84
2018-03-28T02:59:44.877Z,100132.51
2018-03-28T03:00:48.240Z,100128.95
2018-03-28T03:01:51.568Z,100130.28
2018-03-28T03:02:54.913Z,100128.11
2018-03-28T03:03:58.238Z,100128.05
2018-03-28T03:05:01.638Z,100127.63
2018-03-28T03:06:04.985Z,100119.73
2018-03-28T03:07:08.297Z,100127.20
2018-03-28T03:08:11.662Z,100120.16
2018-03-28T03:09:14.982Z,100123.77
2018-03-28T03:10:18.301Z,100127.27
2018-03-28T03:11:21.664Z,100129.91
2018-03-28T03:12:25.177Z,100127.75
2018-03-28T03:13:28.515Z,100131.30
2018-03-28T03:14:31.920Z,100127.33
2018-03-28T03:15:35.232Z,100130.50
2018-03-28T03:16:38.689Z,100132.63
2018-03-28T03:17:42.717Z,100134.86
2018-03-28T03:18:46.023Z,100137.52
2018-03-28T03:19:49.391Z,100136.70
2018-03-28T03:20:52.781Z,100137.12
2018-03-28T03:21:56.137Z,100142.34
2018-03-28T03:22:59.465Z,100142.34
2018-03-28T03:24:02.800Z,100135.22
2018-03-28T03:25:06.116Z,100140.11
2018-03-28T03:26:09.428Z,100138.36
2018-03-28T03:27:13.438Z,100132.63
2018-03-28T03:28:16.760Z,100137.52
2018-03-28T03:29:20.083Z,100131.30
2018-03-28T03:30:23.401Z,100134.86
2018-03-28T03:31:26.713Z,100134.86
2018-03-28T03:32:30.073Z,100128.66
2018-03-28T03:33:34.940Z,100130.40
2018-03-28T03:34:38.297Z,100127.84
2018-03-28T03:35:42.426Z,100128.75
2018-03-28T03:36:46.399Z,100129.65
2018-03-28T03:37:49.759Z,100128.81
2018-03-28T03:38:53.519Z,100130.62
2018-03-28T03:39:56.895Z,100123.98
2018-03-28T03:41:00.213Z,100130.98
2018-03-28T03:42:03.628Z,100134.53
2018-03-28T03:43:06.968Z,100127.48
2018-03-28T03:44:10.297Z,100128.87
2018-03-28T03:45:13.860Z,100128.45
2018-03-28T03:46:17.191Z,100131.10
2018-03-28T03:47:20.504Z,100130.20
2018-03-28T03:48:23.859Z,100132.06
2018-03-28T03:49:27.206Z,100138.21
2018-03-28T03:50:30.612Z,100139.05
2018-03-28T03:51:33.923Z,100144.84
2018-03-28T03:52:37.253Z,100140.87
2018-03-28T03:53:40.664Z,100139.48
2018-03-28T03:54:44.004Z,100142.13
2018-03-28T03:55:47.322Z,100143.94
2018-03-28T03:56:50.639Z,100146.95
2018-03-28T03:57:53.978Z,100146.53
2018-03-28T03:58:57.350Z,100146.47
2018-03-28T04:00:00.730Z,100141.59
2018-03-28T04:01:04.060Z,100149.45
2018-03-28T04:02:07.395Z,100145.89
2018-03-28T04:03:10.743Z,100146.31
2018-03-28T04:04:14.124Z,100151.20
2018-03-28T04:05:17.426Z,100154.75
2018-03-28T04:06:20.789Z,100150.87
2018-03-28T04:07:24.112Z,100157.56
2018-03-28T04:08:27.454Z,100152.73
2018-03-28T04:09:30.831Z,100152.80
2018-03-28T04:10:34.320Z,100145.75
2018-03-28T04:11:37.624Z,100145.27
2018-03-28T04:12:40.948Z,100139.12
2018-03-28T04:13:44.362Z,100133.33
2018-03-28T04:14:47.745Z,100131.59
2018-03-28T04:15:51.103Z,100133.81
2018-03-28T04:16:54.427Z,100139.12
2018-03-28T04:17:57.762Z,100138.64
2018-03-28T04:19:01.084Z,100142.28
2018-03-28T04:20:04.439Z,100152.37
2018-03-28T04:21:07.755Z,100148.92
2018-03-28T04:22:11.067Z,100154.55
2018-03-28T04:23:14.415Z,100157.20
2018-03-28T04:24:17.741Z,100164.31
2018-03-28T04:25:21.108Z,100160.33
2018-03-28T04:26:24.424Z,100166.55
2018-03-28T04:27:27.770Z,100164.83
2018-03-28T04:28:31.064Z,100159.52
2018-03-28T04:29:34.388Z,100155.13
2018-03-28T04:30:37.735Z,100156.88
2018-03-28T04:31:41.097Z,100161.75
2018-03-28T04:32:44.403Z,100156.88
2018-03-28T04:33:47.746Z,100158.20
2018-03-28T04:34:51.069Z,100156.36
2018-03-28T04:35:55.496Z,100161.66
2018-03-28T04:36:58.835Z,100158.11
2018-03-28T04:38:02.147Z,100159.01
2018-03-28T04:39:05.501Z,100156.36
2018-03-28T04:40:09.291Z,100154.12
2018-03-28T04:41:12.634Z,100154.12
2018-03-28T04:42:16.031Z,100153.64
2018-03-28T04:43:19.379Z,100157.20
2018-03-28T04:44:22.696Z,100162.50
2018-03-28T04:45:26.066Z,100166.00
2018-03-28T04:46:29.510Z,100157.62
2018-03-28T04:47:32.848Z,100162.08
2018-03-28T04:48:36.217Z,100162.92
2018-03-28T04:49:39.528Z,100163.83
2018-03-28T04:50:42.854Z,100166.06
2018-03-28T04:51:46.353Z,100163.89
2018-03-28T04:52:49.672Z,100166.16
2018-03-28T04:53:52.997Z,100163.50
2018-03-28T04:54:56.386Z,100159.91
2018-03-28T04:55:59.824Z,100163.50
2018-03-28T04:57:03.226Z,100166.97
2018-03-28T04:58:06.579Z,100162.98
2018-03-28T04:59:09.940Z,100164.83
2018-03-28T05:00:13.250Z,100171.45
2018-03-28T05:01:16.597Z,100165.64
2018-03-28T05:02:20.001Z,100167.06
2018-03-28T05:03:23.352Z,100164.83
2018-03-28T05:04:26.721Z,100162.72
2018-03-28T05:05:30.062Z,100162.66
2018-03-28T05:06:33.365Z,100169.77
2018-03-28T05:07:36.717Z,100169.83
2018-03-28T05:08:40.071Z,100172.06
2018-03-28T05:09:43.394Z,100168.93
2018-03-28T05:10:46.721Z,100172.06
2018-03-28T05:11:50.087Z,100169.34
2018-03-28T05:12:53.493Z,100160.13
2018-03-28T05:13:56.832Z,100165.91
2018-03-28T05:15:00.211Z,100163.69
2018-03-28T05:16:03.599Z,100166.34
2018-03-28T05:17:06.997Z,100166.77
2018-03-28T05:18:10.637Z,100158.32
2018-03-28T05:19:13.970Z,100163.98
2018-03-28T05:20:17.352Z,100165.38
2018-03-28T05:21:20.689Z,100164.11
2018-03-28T05:22:24.063Z,100170.25
2018-03-28T05:23:27.450Z,100167.60
2018-03-28T05:24:30.788Z,100172.06
2018-03-28T05:25:34.181Z,100173.27
2018-03-28T05:26:37.482Z,100168.87
2018-03-28T05:27:40.827Z,100167.12
2018-03-28T05:28:44.211Z,100169.34
2018-03-28T05:29:47.546Z,100171.09
2018-03-28T05:30:50.893Z,100170.61
2018-03-28T05:31:54.220Z,100174.17
2018-03-28T05:32:57.576Z,100176.83
2018-03-28T05:34:00.932Z,100175.02
2018-03-28T05:35:04.277Z,100178.15
2018-03-28T05:36:08.591Z,100175.02
2018-03-28T05:37:11.887Z,100182.45
2018-03-28T05:38:15.230Z,100171.84
2018-03-28T05:39:18.638Z,100180.74
2018-03-28T05:40:21.937Z,100184.14
2018-03-28T05:41:25.308Z,100179.74
2018-03-28T05:42:28.692Z,100176.61
2018-03-28T05:43:32.012Z,100174.86
2018-03-28T05:44:35.380Z,100182.81
2018-03-28T05:45:39.002Z,100177.45
2018-03-28T05:46:42.442Z,100179.63
2018-03-28T05:47:45.765Z,100189.39
2018-03-28T05:48:49.081Z,100184.50
2018-03-28T05:49:52.452Z,100177.88
2018-03-28T05:50:55.819Z,100193.30
2018-03-28T05:51:59.172Z,100190.17
2018-03-28T05:53:02.630Z,100192.41
2018-03-28T05:54:06.000Z,100191.55
2018-03-28T05:55:09.379Z,100192.82
2018-03-28T05:56:12.704Z,100193.73
2018-03-28T05:57:16.036Z,100188.84
2018-03-28T05:58:19.347Z,100193.73
2018-03-28T05:59:22.673Z,100193.21
2018-03-28T06:00:26.062Z,100188.84
2018-03-28T06:01:29.386Z,100197.13
2018-03-28T06:02:32.791Z,100192.73
2018-03-28T06:03:36.827Z,100190.98
2018-03-28T06:04:40.245Z,100185.19
2018-03-28T06:05:43.625Z,100188.33
2018-03-28T06:06:46.966Z,100187.78
2018-03-28T06:07:50.314Z,100192.13
2018-03-28T06:08:53.635Z,100188.63
2018-03-28T06:09:56.957Z,100190.28
2018-03-28T06:11:00.290Z,100181.94
2018-03-28T06:12:04.059Z,100178.77
2018-03-28T06:13:07.408Z,100176.90
2018-03-28T06:14:10.802Z,100176.05
2018-03-28T06:15:14.113Z,100174.67
2018-03-28T06:16:17.500Z,100179.97
2018-03-28T06:17:20.940Z,100171.17
2018-03-28T06:18:24.408Z,100175.94
2018-03-28T06:19:27.776Z,100171.86
2018-03-28T06:20:31.137Z,100175.36
2018-03-28T06:21:34.507Z,100172.22
2018-03-28T06:22:37.835Z,100169.09
2018-03-28T06:23:41.149Z,100164.62
2018-03-28T06:24:44.635Z,100162.39
2018-03-28T06:25:47.906Z,100163.30
2018-03-28T06:26:51.228Z,100162.72
2018-03-28T06:27:54.553Z,100160.49
2018-03-28T06:28:57.921Z,100159.10
2018-03-28T06:30:01.510Z,100161.75
2018-03-28T06:31:04.838Z,100162.59
2018-03-28T06:32:08.216Z,100157.30
2018-03-28T06:33:11.641Z,100155.48
2018-03-28T06:34:15.054Z,100150.11
2018-03-28T06:35:18.389Z,100154.09
2018-03-28T06:36:23.459Z,100155.42
2018-03-28T06:37:28.333Z,100159.88
2018-03-28T06:38:31.756Z,100159.82
2018-03-28T06:39:35.099Z,100156.75
2018-03-28T06:40:38.432Z,100154.52
2018-03-28T06:41:42.713Z,100155.75
2018-03-28T06:42:46.046Z,100156.17
2018-03-28T06:43:49.399Z,100148.16
2018-03-28T06:44:52.857Z,100141.94
2018-03-28T06:45:56.182Z,100138.74
2018-03-28T06:46:59.553Z,100137.80
2018-03-28T06:48:03.653Z,100138.65
2018-03-28T06:49:07.375Z,100143.41
2018-03-28T06:50:10.749Z,100137.26
2018-03-28T06:51:14.087Z,100139.84
2018-03-28T06:52:17.463Z,100141.59
2018-03-28T06:53:20.792Z,100138.46
2018-03-28T06:54:24.106Z,100144.52
2018-03-28T06:55:27.453Z,100141.25
2018-03-28T06:56:30.792Z,100145.50
2018-03-28T06:57:34.477Z,100140.75
2018-03-28T06:58:37.842Z,100144.52
2018-03-28T06:59:41.197Z,100144.33
2018-03-28T07:00:44.506Z,100143.75
2018-03-28T07:01:47.833Z,100142.78
2018-03-28T07:02:51.166Z,100143.95
2018-03-28T07:03:54.533Z,100144.80
2018-03-28T07:04:57.860Z,100147.33
2018-03-28T07:06:01.275Z,100144.67
2018-03-28T07:07:04.581Z,100147.17
2018-03-28T07:08:07.933Z,100146.20
2018-03-28T07:09:11.276Z,100147.40
2018-03-28T07:10:14.796Z,100148.02
2018-03-28T07:11:18.876Z,100149.61
2018-03-28T07:12:22.231Z,100148.48
2018-03-28T07:13:25.591Z,100149.23
2018-03-28T07:14:29.027Z,100145.52
2018-03-28T07:15:32.332Z,100156.85
2018-03-28T07:16:35.696Z,100153.91
2018-03-28T07:17:39.023Z,100153.63
2018-03-28T07:18:42.376Z,100150.81
2018-03-28T07:19:45.742Z,100155.84
2018-03-28T07:20:49.673Z,100149.63
2018-03-28T07:21:53.006Z,100147.33
2018-03-28T07:22:56.331Z,100145.45
2018-03-28T07:23:59.653Z,100146.30
2018-03-28T07:25:03.089Z,100142.15
2018-03-28T07:26:06.573Z,100136.71
2018-03-28T07:27:09.882Z,100141.80
2018-03-28T07:28:13.208Z,100143.39
2018-03-28T07:29:16.521Z,100144.59
2018-03-28T07:30:19.900Z,100143.94
2018-03-28T07:31:23.241Z,100140.73
2018-03-28T07:32:26.769Z,100132.70
2018-03-28T07:33:30.964Z,100133.39
2018-03-28T07:34:34.317Z,100133.94
2018-03-28T07:35:37.661Z,100134.98
2018-03-28T07:36:42.231Z,100138.61
2018-03-28T07:37:45.583Z,100139.48
2018-03-28T07:38:48.941Z,100138.29
2018-03-28T07:39:52.240Z,100140.59
2018-03-28T07:40:55.638Z,100132.27
2018-03-28T07:41:58.983Z,100124.84
2018-03-28T07:43:02.308Z,100130.22
2018-03-28T07:44:05.692Z,100129.86
2018-03-28T07:45:09.174Z,100128.00
2018-03-28T07:46:13.301Z,100125.89
2018-03-28T07:47:16.629Z,100125.53
2018-03-28T07:48:19.961Z,100123.74
2018-03-28T07:49:23.383Z,100125.72
2018-03-28T07:50:26.686Z,100124.58
2018-03-28T07:51:30.084Z,100116.44
2018-03-28T07:52:34.077Z,100119.39
2018-03-28T07:53:37.395Z,100113.00
2018-03-28T07:54:41.674Z,100109.23
2018-03-28T07:55:45.005Z,100108.83
2018-03-28T07:56:48.351Z,100104.64
2018-03-28T07:57:51.698Z,100106.94
2018-03-28T07:58:55.183Z,100114.94
2018-03-28T07:59:58.655Z,100111.16
2018-03-28T08:01:02.022Z,100112.33
2018-03-28T08:02:05.399Z,100116.99
2018-03-28T08:03:08.813Z,100118.00
2018-03-28T08:04:12.144Z,100114.08
2018-03-28T08:05:15.564Z,100114.14
2018-03-28T08:06:18.984Z,100111.16
2018-03-28T08:07:22.326Z,100106.40
2018-03-28T08:08:26.588Z,100110.33
2018-03-28T08:09:29.969Z,100108.99
2018-03-28T08:10:33.241Z,100112.49
2018-03-28T08:11:36.616Z,100111.23
2018-03-28T08:12:39.991Z,100110.81
2018-03-28T08:13:43.329Z,100110.63
2018-03-28T08:14:46.642Z,100105.37
2018-03-28T08:15:50.151Z,100112.09
2018-03-28T08:16:53.469Z,100095.64
2018-03-28T08:17:57.027Z,100098.72
2018-03-28T08:19:00.384Z,100100.54
2018-03-28T08:20:03.741Z,100101.37
2018-03-28T08:21:07.145Z,100094.25
2018-03-28T08:22:10.463Z,100096.73
2018-03-28T08:23:14.124Z,100094.44
2018-03-28T08:24:17.747Z,100098.98
2018-03-28T08:25:21.081Z,100096.67
2018-03-28T08:26:24.424Z,100097.09
2018-03-28T08:27:27.766Z,100091.28
2018-03-28T08:28:31.148Z,100097.34
2018-03-28T08:29:34.480Z,100096.38
2018-03-28T08:30:37.801Z,100093.71
2018-03-28T08:31:41.271Z,100095.39
2018-03-28T08:32:44.598Z,100089.16
2018-03-28T08:33:47.954Z,100088.75
2018-03-28T08:34:51.265Z,100090.39
2018-03-28T08:35:54.586Z,100090.33
2018-03-28T08:36:58.878Z,100087.11
2018-03-28T08:38:02.222Z,100091.03
2018-03-28T08:39:07.508Z,100088.37
2018-03-28T08:40:10.828Z,100087.53
2018-03-28T08:41:14.139Z,100091.94
2018-03-28T08:42:17.542Z,100089.77
2018-03-28T08:43:20.884Z,100090.68
2018-03-28T08:44:24.555Z,100094.19
2018-03-28T08:45:27.848Z,100096.00
2018-03-28T08:46:31.165Z,100091.23
2018-03-28T08:47:34.530Z,100089.06
2018-03-28T08:48:37.918Z,100090.01
2018-03-28T08:49:41.341Z,100086.09
2018-03-28T08:50:44.700Z,100086.58
2018-03-28T08:51:48.068Z,100088.95
2018-03-28T08:52:51.389Z,100086.39
2018-03-28T08:53:54.704Z,100084.28
2018-03-28T08:54:58.091Z,100082.53
2018-03-28T08:56:01.395Z,100086.59
2018-03-28T08:57:04.797Z,100082.77
2018-03-28T08:58:08.112Z,100085.98
2018-03-28T08:59:11.436Z,100081.25
2018-03-28T09:00:14.825Z,100082.72
2018-03-28T09:01:18.227Z,100079.28
2018-03-28T09:02:21.569Z,100079.80
2018-03-28T09:03:24.905Z,100076.37
2018-03-28T09:04:28.389Z,100073.29
2018-03-28T09:05:31.749Z,100066.71
2018-03-28T09:06:35.105Z,100067.62
2018-03-28T09:07:38.410Z,100066.29
2018-03-28T09:08:41.760Z,100067.62
2018-03-28T09:09:45.113Z,100069.05
2018-03-28T09:10:48.479Z,100064.22
2018-03-28T09:11:51.842Z,100063.80
2018-03-28T09:12:55.198Z,100059.03
2018-03-28T09:13:58.528Z,100061.77
2018-03-28T09:15:01.874Z,100065.75
2018-03-28T09:16:05.257Z,100063.19
2018-03-28T09:17:08.560Z,100065.01
2018-03-28T09:18:11.888Z,100064.23
2018-03-28T09:19:15.234Z,100063.49
2018-03-28T09:20:18.577Z,100064.89
2018-03-28T09:21:21.961Z,100060.61
2018-03-28T09:22:25.343Z,100059.38
2018-03-28T09:23:28.667Z,100061.69
2018-03-28T09:24:31.988Z,100054.55
2018-03-28T09:25:35.380Z,100057.14
2018-03-28T09:26:38.708Z,100053.97
2018-03-28T09:27:42.028Z,100052.50
2018-03-28T09:28:45.364Z,100058.92
2018-03-28T09:29:48.692Z,100061.02
2018-03-28T09:30:52.006Z,100054.98
2018-03-28T09:31:55.340Z,100054.68
2018-03-28T09:33:00.295Z,100054.37
2018-03-28T09:34:03.635Z,100046.69
2018-03-28T09:35:06.963Z,100052.74
2018-03-28T09:36:10.281Z,100047.29
2018-03-28T09:37:15.682Z,100051.21
2018-03-28T09:38:19.000Z,100042.39
2018-03-28T09:39:22.320Z,100046.28
2018-03-28T09:40:25.699Z,100043.98
2018-03-28T09:41:29.010Z,100043.84
2018-03-28T09:42:32.360Z,100038.03
2018-03-28T09:43:35.697Z,100041.02
2018-03-28T09:44:39.031Z,100039.61
2018-03-28T09:45:42.399Z,100034.23
2018-03-28T09:46:45.784Z,100035.81
2018-03-28T09:47:49.142Z,100032.35
2018-03-28T09:48:52.617Z,100039.05
2018-03-28T09:49:55.960Z,100030.41
2018-03-28T09:50:59.318Z,100030.11
2018-03-28T09:52:07.322Z,100021.01
2018-03-28T09:53:13.824Z,100022.03
2018-03-28T09:54:17.376Z,100022.66
2018-03-28T09:55:22.724Z,100031.73
2018-03-28T09:56:26.066Z,100023.03
2018-03-28T09:57:29.359Z,100031.19
2018-03-28T09:58:32.696Z,100026.08
2018-03-28T09:59:36.016Z,100028.57
2018-03-28T10:00:39.364Z,100036.73
2018-03-28T10:01:48.203Z,100032.95
2018-03-28T10:02:51.526Z,100030.55
2018-03-28T10:04:00.515Z,100027.64
2018-03-28T10:05:03.882Z,100035.06
2018-03-28T10:06:07.188Z,100036.67
2018-03-28T10:07:10.528Z,100036.44
2018-03-28T10:08:13.859Z,100039.84
2018-03-28T10:09:17.298Z,100032.69
2018-03-28T10:10:20.816Z,100034.20
2018-03-28T10:11:24.132Z,100027.13
2018-03-28T10:12:27.452Z,100022.84
2018-03-28T10:13:30.872Z,100023.51
2018-03-28T10:14:34.200Z,100026.41
2018-03-28T10:15:37.641Z,100024.31
2018-03-28T10:16:40.951Z,100020.56
2018-03-28T10:17:44.310Z,100015.31
2018-03-28T10:18:47.632Z,100020.63
2018-03-28T10:19:50.991Z,100018.88
2018-03-28T10:20:54.399Z,100019.65
2018-03-28T10:21:57.755Z,100013.31
2018-03-28T10:23:01.052Z,100018.14
2018-03-28T10:24:04.743Z,100008.77
2018-03-28T10:25:08.557Z,100011.36
2018-03-28T10:26:11.986Z,100012.27
2018-03-28T10:27:15.313Z,100009.53
2018-03-28T10:28:18.654Z,100004.04
2018-03-28T10:29:22.042Z,100002.88
2018-03-28T10:30:29.574Z,100007.78
2018-03-28T10:31:33.659Z,100001.27
2018-03-28T10:32:37.855Z,99998.26
2018-03-28T10:33:41.198Z,99998.85
2018-03-28T10:34:44.741Z,99996.33
2018-03-28T10:35:48.152Z,99992.83
2018-03-28T10:36:51.481Z,99996.08
2018-03-28T10:37:54.832Z,99993.91
2018-03-28T10:38:58.151Z,99996.64
2018-03-28T10:40:01.464Z,99989.14
2018-03-28T10:41:04.810Z,99992.33
2018-03-28T10:42:08.164Z,99986.42
2018-03-28T10:43:11.498Z,99985.92
2018-03-28T10:44:14.831Z,99983.69
2018-03-28T10:45:18.154Z,99981.45
2018-03-28T10:46:21.564Z,99983.13
2018-03-28T10:47:24.864Z,99975.63
2018-03-28T10:48:28.279Z,99980.95
2018-03-28T10:49:31.654Z,99972.97
2018-03-28T10:50:35.056Z,99972.06
2018-03-28T10:51:38.455Z,99966.39
2018-03-28T10:52:41.764Z,99966.53
2018-03-28T10:53:45.182Z,99963.63
2018-03-28T10:54:48.527Z,99961.94
2018-03-28T10:55:52.029Z,99956.20
2018-03-28T10:56:55.400Z,99953.64
2018-03-28T10:57:58.725Z,99944.72
2018-03-28T10:59:02.104Z,99943.31
2018-03-28T11:00:05.412Z,99948.14
2018-03-28T11:01:08.728Z,99944.92
2018-03-28T11:02:12.075Z,99941.00
2018-03-28T11:03:15.438Z,99940.52
2018-03-28T11:04:18.752Z,99939.19
2018-03-28T11:05:22.089Z,99941.36
2018-03-28T11:06:25.442Z,99935.86
2018-03-28T11:07:28.804Z,99935.38
2018-03-28T11:08:32.121Z,99937.05
2018-03-28T11:09:35.509Z,99935.61
2018-03-28T11:10:38.814Z,99930.22
2018-03-28T11:11:42.127Z,99928.05
2018-03-28T11:12:45.585Z,99931.98
2018-03-28T11:13:48.921Z,99929.24
2018-03-28T11:14:52.258Z,99924.83
2018-03-28T11:15:55.632Z,99916.92
2018-03-28T11:16:58.920Z,99919.58
2018-03-28T11:18:02.362Z,99913.42
2018-03-28T11:19:05.654Z,99915.17
2018-03-28T11:20:08.975Z,99909.84
2018-03-28T11:21:12.335Z,99909.77
2018-03-28T11:22:15.641Z,99908.02
2018-03-28T11:23:19.213Z,99902.21
2018-03-28T11:24:22.653Z,99909.28
2018-03-28T11:25:25.944Z,99901.72
2018-03-28T11:26:29.340Z,99899.06
2018-03-28T11:27:32.655Z,99895.48
2018-03-28T11:28:35.985Z,99895.00
2018-03-28T11:29:39.303Z,99886.91
2018-03-28T11:30:42.678Z,99889.02
2018-03-28T11:31:45.967Z,99881.80
2018-03-28T11:32:49.321Z,99879.45
2018-03-28T11:33:52.692Z,99876.16
2018-03-28T11:34:56.049Z,99870.66
2018-03-28T11:35:59.361Z,99866.09
2018-03-28T11:37:02.769Z,99866.77
2018-03-28T11:38:08.015Z,99863.95
2018-03-28T11:39:11.446Z,99862.03
2018-03-28T11:40:14.730Z,99864.80
2018-03-28T11:41:18.045Z,99855.75
2018-03-28T11:42:21.376Z,99856.59
2018-03-28T11:43:24.700Z,99855.08
2018-03-28T11:44:28.088Z,99855.50
2018-03-28T11:45:31.421Z,99845.70
2018-03-28T11:46:34.755Z,99851.44
2018-03-28T11:47:38.103Z,99847.59
2018-03-28T11:48:41.470Z,99842.69
2018-03-28T11:49:45.469Z,99842.38
2018-03-28T11:50:48.839Z,99837.54
2018-03-28T11:51:52.903Z,99840.69
2018-03-28T11:52:56.239Z,99842.17
2018-03-28T11:53:59.625Z,99839.86
2018-03-28T11:55:02.972Z,99834.45
2018-03-28T11:56:06.288Z,99835.78
2018-03-28T11:57:09.993Z,99826.89
2018-03-28T11:58:13.368Z,99829.62
2018-03-28T11:59:16.738Z,99829.70
2018-03-28T12:00:21.865Z,99825.39
2018-03-28T12:01:25.190Z,99821.13
2018-03-28T12:02:28.505Z,99819.80
2018-03-28T12:03:31.847Z,99816.64
2018-03-28T12:04:35.238Z,99815.38
2018-03-28T12:05:38.581Z,99810.66